Chaiyaphum, Thailand
Current Conditions -  °F | °C
As of 5:00 PM on Friday 31 Oct 2014 (Local Time) from VTUK Reporting Station
Few Clouds Few Clouds  
Wind Chill: 88°   Ceiling: Unl
Heat Index: 94°   Visibility: 6mi
Dew Point: 72°   Wind: 3mph
Humidity: 58%   Direction: 80°E
Pressure: 29.77"   Gusts: NA
Location:  15.8°N, 102.04°E
Report Text: VTUK 311000Z 08003KT 9999 FEW025 31/22 Q1008 A2978 NOSIG
Loading
Personal Weather Stations






























Interactive Weather Map New forecast layout! Learn more

10-Day Weather Forecast

Advertisements
Track Severe Weather on mobile